LFOV 171500Z AUTO 26014KT 9999 FEW037 09/02 Q1022

ElémentsDécodage
LFOV Station météo située sur l'aérodrome de LAVAL Entrammes
171500Z émis le 17 du mois à 15h00 UTC
AUTO Bulletin édité par un automate
26014KT vent du 260°, 14 noeuds
9999 visibilité horizontale supérieure à 10 Km
FEW037 nuages rares (1/8 à 2/8) à 3700 pieds
09/02 température 09°C, point de rosée 02°C
 soit une humidité relative de 62%
Q1022 la pression au niveau de la mer (QNH) est de 1022 hPa